sensor_id;sensor_type;location;lat;lon;timestamp;temperature;humidity
1940;DHT22;1232;48.008;7.864;2022-07-23T00:00:54;26.60;70.80
1940;DHT22;1232;48.008;7.864;2022-07-23T00:03:20;26.70;70.40
1940;DHT22;1232;48.008;7.864;2022-07-23T00:05:46;26.80;72.60
1940;DHT22;1232;48.008;7.864;2022-07-23T00:08:11;26.80;73.60
1940;DHT22;1232;48.008;7.864;2022-07-23T00:10:37;26.40;75.10
1940;DHT22;1232;48.008;7.864;2022-07-23T00:13:02;26.20;75.90
1940;DHT22;1232;48.008;7.864;2022-07-23T00:15:28;26.00;76.60
1940;DHT22;1232;48.008;7.864;2022-07-23T00:17:53;25.60;76.60
1940;DHT22;1232;48.008;7.864;2022-07-23T00:20:19;25.50;75.30
1940;DHT22;1232;48.008;7.864;2022-07-23T00:25:12;25.60;73.10
1940;DHT22;1232;48.008;7.864;2022-07-23T00:27:38;25.60;73.40
1940;DHT22;1232;48.008;7.864;2022-07-23T00:30:04;25.70;74.00
1940;DHT22;1232;48.008;7.864;2022-07-23T00:32:29;25.70;74.10
1940;DHT22;1232;48.008;7.864;2022-07-23T00:34:55;25.60;73.60
1940;DHT22;1232;48.008;7.864;2022-07-23T00:37:20;25.60;73.40
1940;DHT22;1232;48.008;7.864;2022-07-23T00:39:46;25.50;73.30
1940;DHT22;1232;48.008;7.864;2022-07-23T00:42:11;25.50;72.90
1940;DHT22;1232;48.008;7.864;2022-07-23T00:44:37;25.50;72.40
1940;DHT22;1232;48.008;7.864;2022-07-23T00:47:02;25.60;72.50
1940;DHT22;1232;48.008;7.864;2022-07-23T00:49:28;25.50;72.60
1940;DHT22;1232;48.008;7.864;2022-07-23T00:51:54;25.60;72.50
1940;DHT22;1232;48.008;7.864;2022-07-23T00:54:21;25.50;73.30
1940;DHT22;1232;48.008;7.864;2022-07-23T00:56:47;25.30;74.70
1940;DHT22;1232;48.008;7.864;2022-07-23T00:59:13;25.30;74.40
1940;DHT22;1232;48.008;7.864;2022-07-23T01:01:39;25.40;75.50
1940;DHT22;1232;48.008;7.864;2022-07-23T01:04:04;25.50;76.40
1940;DHT22;1232;48.008;7.864;2022-07-23T01:06:30;25.30;76.00
1940;DHT22;1232;48.008;7.864;2022-07-23T01:08:57;25.40;76.00
1940;DHT22;1232;48.008;7.864;2022-07-23T01:11:23;25.30;76.20
1940;DHT22;1232;48.008;7.864;2022-07-23T01:13:49;25.30;76.80
1940;DHT22;1232;48.008;7.864;2022-07-23T01:16:14;25.20;81.10
1940;DHT22;1232;48.008;7.864;2022-07-23T01:18:40;25.20;81.30
1940;DHT22;1232;48.008;7.864;2022-07-23T01:21:05;25.20;82.40
1940;DHT22;1232;48.008;7.864;2022-07-23T01:23:31;25.10;83.80
1940;DHT22;1232;48.008;7.864;2022-07-23T01:25:56;25.00;83.60
1940;DHT22;1232;48.008;7.864;2022-07-23T01:28:22;25.00;82.80
1940;DHT22;1232;48.008;7.864;2022-07-23T01:30:47;24.90;83.50
1940;DHT22;1232;48.008;7.864;2022-07-23T01:33:13;25.00;84.50
1940;DHT22;1232;48.008;7.864;2022-07-23T01:35:38;24.90;86.40
1940;DHT22;1232;48.008;7.864;2022-07-23T01:44:10;24.80;91.50
1940;DHT22;1232;48.008;7.864;2022-07-23T01:46:35;24.80;95.00
1940;DHT22;1232;48.008;7.864;2022-07-23T01:49:01;24.70;95.80
1940;DHT22;1232;48.008;7.864;2022-07-23T01:51:26;23.90;99.90
1940;DHT22;1232;48.008;7.864;2022-07-23T01:53:52;23.20;99.90
1940;DHT22;1232;48.008;7.864;2022-07-23T01:56:17;22.50;99.90
1940;DHT22;1232;48.008;7.864;2022-07-23T01:58:45;22.50;99.90
1940;DHT22;1232;48.008;7.864;2022-07-23T02:01:11;22.30;99.90
1940;DHT22;1232;48.008;7.864;2022-07-23T02:03:36;22.50;99.90
1940;DHT22;1232;48.008;7.864;2022-07-23T02:06:01;22.30;99.90
1940;DHT22;1232;48.008;7.864;2022-07-23T02:08:27;22.20;99.90
1940;DHT22;1232;48.008;7.864;2022-07-23T02:10:52;22.20;99.90
1940;DHT22;1232;48.008;7.864;2022-07-23T02:13:18;22.30;99.90
1940;DHT22;1232;48.008;7.864;2022-07-23T02:15:44;22.20;99.90
1940;DHT22;1232;48.008;7.864;2022-07-23T02:18:09;22.10;99.90
1940;DHT22;1232;48.008;7.864;2022-07-23T02:20:35;22.20;99.90
1940;DHT22;1232;48.008;7.864;2022-07-23T02:23:05;22.20;99.90
1940;DHT22;1232;48.008;7.864;2022-07-23T02:25:31;22.20;99.90
1940;DHT22;1232;48.008;7.864;2022-07-23T02:27:56;22.20;99.90
1940;DHT22;1232;48.008;7.864;2022-07-23T02:30:22;22.10;99.90
1940;DHT22;1232;48.008;7.864;2022-07-23T02:32:47;22.00;99.90
1940;DHT22;1232;48.008;7.864;2022-07-23T02:35:12;21.90;99.90
1940;DHT22;1232;48.008;7.864;2022-07-23T02:37:38;21.90;99.90
1940;DHT22;1232;48.008;7.864;2022-07-23T02:40:04;22.00;99.90
1940;DHT22;1232;48.008;7.864;2022-07-23T02:42:29;21.90;99.90
1940;DHT22;1232;48.008;7.864;2022-07-23T02:44:55;21.80;99.90
1940;DHT22;1232;48.008;7.864;2022-07-23T02:47:20;21.70;99.90
1940;DHT22;1232;48.008;7.864;2022-07-23T02:49:45;21.60;99.90
1940;DHT22;1232;48.008;7.864;2022-07-23T02:52:11;21.70;99.90
1940;DHT22;1232;48.008;7.864;2022-07-23T02:54:37;21.70;99.90
1940;DHT22;1232;48.008;7.864;2022-07-23T02:57:03;21.70;99.90
1940;DHT22;1232;48.008;7.864;2022-07-23T02:59:28;21.70;99.90
1940;DHT22;1232;48.008;7.864;2022-07-23T03:01:53;21.70;99.90
1940;DHT22;1232;48.008;7.864;2022-07-23T03:04:19;21.50;99.90
1940;DHT22;1232;48.008;7.864;2022-07-23T03:06:44;21.50;99.90
1940;DHT22;1232;48.008;7.864;2022-07-23T03:09:10;21.40;99.90
1940;DHT22;1232;48.008;7.864;2022-07-23T03:11:35;21.50;99.90
1940;DHT22;1232;48.008;7.864;2022-07-23T03:14:01;21.50;99.90
1940;DHT22;1232;48.008;7.864;2022-07-23T03:16:26;21.40;99.90
1940;DHT22;1232;48.008;7.864;2022-07-23T03:18:52;21.60;99.90
1940;DHT22;1232;48.008;7.864;2022-07-23T03:21:17;21.60;99.90
1940;DHT22;1232;48.008;7.864;2022-07-23T03:23:42;21.50;99.90
1940;DHT22;1232;48.008;7.864;2022-07-23T03:26:08;21.50;99.90
1940;DHT22;1232;48.008;7.864;2022-07-23T03:28:33;21.70;99.90
1940;DHT22;1232;48.008;7.864;2022-07-23T03:30:59;21.80;99.90
1940;DHT22;1232;48.008;7.864;2022-07-23T03:33:24;21.60;99.90
1940;DHT22;1232;48.008;7.864;2022-07-23T03:35:50;21.40;99.90
1940;DHT22;1232;48.008;7.864;2022-07-23T03:38:15;21.20;99.90
1940;DHT22;1232;48.008;7.864;2022-07-23T03:40:41;21.00;99.90
1940;DHT22;1232;48.008;7.864;2022-07-23T03:43:07;20.90;99.90
1940;DHT22;1232;48.008;7.864;2022-07-23T03:45:32;20.80;99.90
1940;DHT22;1232;48.008;7.864;2022-07-23T03:47:58;20.60;99.90
1940;DHT22;1232;48.008;7.864;2022-07-23T03:50:23;20.70;99.90
1940;DHT22;1232;48.008;7.864;2022-07-23T03:52:49;20.80;99.90
1940;DHT22;1232;48.008;7.864;2022-07-23T03:55:14;21.10;99.90
1940;DHT22;1232;48.008;7.864;2022-07-23T03:57:40;21.40;99.90
1940;DHT22;1232;48.008;7.864;2022-07-23T04:00:06;21.60;99.90
1940;DHT22;1232;48.008;7.864;2022-07-23T04:02:33;21.40;99.90
1940;DHT22;1232;48.008;7.864;2022-07-23T04:04:58;21.10;99.90
1940;DHT22;1232;48.008;7.864;2022-07-23T04:07:25;21.10;99.90
1940;DHT22;1232;48.008;7.864;2022-07-23T04:09:50;20.80;99.90
1940;DHT22;1232;48.008;7.864;2022-07-23T04:12:16;21.20;99.90
1940;DHT22;1232;48.008;7.864;2022-07-23T04:14:41;21.10;99.90
1940;DHT22;1232;48.008;7.864;2022-07-23T04:17:07;21.00;99.90
1940;DHT22;1232;48.008;7.864;2022-07-23T04:19:32;21.10;99.90
1940;DHT22;1232;48.008;7.864;2022-07-23T04:21:58;20.80;99.90
1940;DHT22;1232;48.008;7.864;2022-07-23T04:24:23;20.50;99.90
1940;DHT22;1232;48.008;7.864;2022-07-23T04:26:49;20.60;99.90
1940;DHT22;1232;48.008;7.864;2022-07-23T04:29:14;20.70;99.90
1940;DHT22;1232;48.008;7.864;2022-07-23T04:31:40;20.90;99.90
1940;DHT22;1232;48.008;7.864;2022-07-23T04:34:05;21.20;99.90
1940;DHT22;1232;48.008;7.864;2022-07-23T04:36:30;21.30;99.90
1940;DHT22;1232;48.008;7.864;2022-07-23T04:38:56;21.10;99.90
1940;DHT22;1232;48.008;7.864;2022-07-23T04:41:21;20.90;99.90
1940;DHT22;1232;48.008;7.864;2022-07-23T04:43:47;20.90;99.90
1940;DHT22;1232;48.008;7.864;2022-07-23T04:46:12;21.00;99.90
1940;DHT22;1232;48.008;7.864;2022-07-23T04:48:39;21.10;99.90
1940;DHT22;1232;48.008;7.864;2022-07-23T04:51:04;21.30;99.90
1940;DHT22;1232;48.008;7.864;2022-07-23T04:53:30;21.20;99.90
1940;DHT22;1232;48.008;7.864;2022-07-23T04:55:55;21.10;99.90
1940;DHT22;1232;48.008;7.864;2022-07-23T04:58:21;21.10;99.90
1940;DHT22;1232;48.008;7.864;2022-07-23T05:00:47;21.00;99.90
1940;DHT22;1232;48.008;7.864;2022-07-23T05:03:12;21.10;99.90
1940;DHT22;1232;48.008;7.864;2022-07-23T05:05:38;21.00;99.90
1940;DHT22;1232;48.008;7.864;2022-07-23T05:08:03;21.00;99.90
1940;DHT22;1232;48.008;7.864;2022-07-23T05:10:29;21.00;99.90
1940;DHT22;1232;48.008;7.864;2022-07-23T05:12:54;21.00;99.90
1940;DHT22;1232;48.008;7.864;2022-07-23T05:15:20;20.90;99.90
1940;DHT22;1232;48.008;7.864;2022-07-23T05:17:45;20.90;99.90
1940;DHT22;1232;48.008;7.864;2022-07-23T05:20:11;20.90;99.90
1940;DHT22;1232;48.008;7.864;2022-07-23T05:22:36;21.50;99.90
1940;DHT22;1232;48.008;7.864;2022-07-23T05:25:01;21.50;99.90
1940;DHT22;1232;48.008;7.864;2022-07-23T05:27:27;21.90;99.90
1940;DHT22;1232;48.008;7.864;2022-07-23T05:29:52;22.20;99.90
1940;DHT22;1232;48.008;7.864;2022-07-23T05:32:18;22.20;99.90
1940;DHT22;1232;48.008;7.864;2022-07-23T05:34:43;22.40;99.90
1940;DHT22;1232;48.008;7.864;2022-07-23T05:37:09;22.50;99.90
1940;DHT22;1232;48.008;7.864;2022-07-23T05:39:34;22.60;99.90
1940;DHT22;1232;48.008;7.864;2022-07-23T05:42:00;22.50;99.90
1940;DHT22;1232;48.008;7.864;2022-07-23T05:44:25;22.40;99.90
1940;DHT22;1232;48.008;7.864;2022-07-23T05:46:52;22.40;99.90
1940;DHT22;1232;48.008;7.864;2022-07-23T05:49:18;22.80;99.90
1940;DHT22;1232;48.008;7.864;2022-07-23T05:51:43;23.10;99.90
1940;DHT22;1232;48.008;7.864;2022-07-23T05:54:09;23.50;99.90
1940;DHT22;1232;48.008;7.864;2022-07-23T05:56:34;23.80;99.90
1940;DHT22;1232;48.008;7.864;2022-07-23T05:59:00;24.00;99.90
1940;DHT22;1232;48.008;7.864;2022-07-23T06:01:25;24.50;99.90
1940;DHT22;1232;48.008;7.864;2022-07-23T06:03:51;24.80;99.90
1940;DHT22;1232;48.008;7.864;2022-07-23T06:06:16;24.70;99.90
1940;DHT22;1232;48.008;7.864;2022-07-23T06:08:42;24.50;99.90
1940;DHT22;1232;48.008;7.864;2022-07-23T06:11:08;24.50;99.90
1940;DHT22;1232;48.008;7.864;2022-07-23T06:13:33;24.70;99.90
1940;DHT22;1232;48.008;7.864;2022-07-23T06:15:59;24.10;99.90
1940;DHT22;1232;48.008;7.864;2022-07-23T06:18:24;23.90;99.90
1940;DHT22;1232;48.008;7.864;2022-07-23T06:20:50;24.20;99.90
1940;DHT22;1232;48.008;7.864;2022-07-23T06:23:16;24.30;99.90
1940;DHT22;1232;48.008;7.864;2022-07-23T06:25:41;24.40;99.90
1940;DHT22;1232;48.008;7.864;2022-07-23T06:28:07;24.60;99.90
1940;DHT22;1232;48.008;7.864;2022-07-23T06:30:32;25.00;99.90
1940;DHT22;1232;48.008;7.864;2022-07-23T06:32:58;25.20;99.90
1940;DHT22;1232;48.008;7.864;2022-07-23T06:35:23;25.60;99.90
1940;DHT22;1232;48.008;7.864;2022-07-23T06:37:49;26.00;99.90
1940;DHT22;1232;48.008;7.864;2022-07-23T06:40:14;26.40;99.90
1940;DHT22;1232;48.008;7.864;2022-07-23T06:42:40;26.60;99.90
1940;DHT22;1232;48.008;7.864;2022-07-23T06:45:07;26.60;99.90
1940;DHT22;1232;48.008;7.864;2022-07-23T06:47:32;26.60;99.90
1940;DHT22;1232;48.008;7.864;2022-07-23T06:49:58;27.00;99.90
1940;DHT22;1232;48.008;7.864;2022-07-23T06:52:24;27.10;99.90
1940;DHT22;1232;48.008;7.864;2022-07-23T06:54:51;27.20;99.90
1940;DHT22;1232;48.008;7.864;2022-07-23T06:57:17;27.10;99.90
1940;DHT22;1232;48.008;7.864;2022-07-23T06:59:42;27.20;99.90
1940;DHT22;1232;48.008;7.864;2022-07-23T07:02:08;27.10;99.90
1940;DHT22;1232;48.008;7.864;2022-07-23T07:04:34;27.20;99.90
1940;DHT22;1232;48.008;7.864;2022-07-23T07:06:59;27.50;99.90
1940;DHT22;1232;48.008;7.864;2022-07-23T07:09:25;27.60;99.90
1940;DHT22;1232;48.008;7.864;2022-07-23T07:11:51;27.70;99.90
1940;DHT22;1232;48.008;7.864;2022-07-23T07:14:16;27.60;99.90
1940;DHT22;1232;48.008;7.864;2022-07-23T07:16:42;27.30;99.90
1940;DHT22;1232;48.008;7.864;2022-07-23T07:19:07;27.00;99.90
1940;DHT22;1232;48.008;7.864;2022-07-23T07:21:33;27.00;99.90
1940;DHT22;1232;48.008;7.864;2022-07-23T07:23:58;26.80;99.90
1940;DHT22;1232;48.008;7.864;2022-07-23T07:26:24;26.90;99.90
1940;DHT22;1232;48.008;7.864;2022-07-23T07:28:49;27.60;99.90
1940;DHT22;1232;48.008;7.864;2022-07-23T07:31:15;28.00;99.90
1940;DHT22;1232;48.008;7.864;2022-07-23T07:33:41;28.50;99.90
1940;DHT22;1232;48.008;7.864;2022-07-23T07:36:06;28.50;99.90
1940;DHT22;1232;48.008;7.864;2022-07-23T07:38:32;28.40;99.90
1940;DHT22;1232;48.008;7.864;2022-07-23T07:40:57;28.30;99.90
1940;DHT22;1232;48.008;7.864;2022-07-23T07:43:23;28.20;99.90
1940;DHT22;1232;48.008;7.864;2022-07-23T07:45:48;28.40;99.90
1940;DHT22;1232;48.008;7.864;2022-07-23T07:48:14;28.80;99.90
1940;DHT22;1232;48.008;7.864;2022-07-23T07:50:39;29.10;99.90
1940;DHT22;1232;48.008;7.864;2022-07-23T07:53:05;29.50;99.90
1940;DHT22;1232;48.008;7.864;2022-07-23T07:55:31;30.20;99.90
1940;DHT22;1232;48.008;7.864;2022-07-23T07:57:57;30.00;99.90
1940;DHT22;1232;48.008;7.864;2022-07-23T08:00:22;30.60;99.90
1940;DHT22;1232;48.008;7.864;2022-07-23T08:02:50;30.70;99.10
1940;DHT22;1232;48.008;7.864;2022-07-23T08:05:25;30.60;99.10
1940;DHT22;1232;48.008;7.864;2022-07-23T08:07:52;31.70;96.10
1940;DHT22;1232;48.008;7.864;2022-07-23T08:10:18;33.00;93.40
1940;DHT22;1232;48.008;7.864;2022-07-23T08:12:49;33.30;90.30
1940;DHT22;1232;48.008;7.864;2022-07-23T08:15:16;32.30;90.20
1940;DHT22;1232;48.008;7.864;2022-07-23T08:17:44;32.40;89.60
1940;DHT22;1232;48.008;7.864;2022-07-23T08:20:11;32.00;87.70
1940;DHT22;1232;48.008;7.864;2022-07-23T08:25:09;33.90;83.00
1940;DHT22;1232;48.008;7.864;2022-07-23T08:27:35;34.00;79.00
1940;DHT22;1232;48.008;7.864;2022-07-23T08:30:01;33.80;75.60
1940;DHT22;1232;48.008;7.864;2022-07-23T08:32:26;34.00;74.80
1940;DHT22;1232;48.008;7.864;2022-07-23T08:34:52;33.80;75.10
1940;DHT22;1232;48.008;7.864;2022-07-23T08:37:17;32.60;74.90
1940;DHT22;1232;48.008;7.864;2022-07-23T08:39:43;32.70;73.30
1940;DHT22;1232;48.008;7.864;2022-07-23T08:42:08;32.40;73.40
1940;DHT22;1232;48.008;7.864;2022-07-23T08:44:37;31.20;75.60
1940;DHT22;1232;48.008;7.864;2022-07-23T08:47:04;30.60;77.60
1940;DHT22;1232;48.008;7.864;2022-07-23T08:49:30;30.20;81.30
1940;DHT22;1232;48.008;7.864;2022-07-23T08:51:56;30.30;80.10
1940;DHT22;1232;48.008;7.864;2022-07-23T08:54:22;30.40;79.10
1940;DHT22;1232;48.008;7.864;2022-07-23T08:56:48;30.40;79.50
1940;DHT22;1232;48.008;7.864;2022-07-23T08:59:14;30.30;79.90
1940;DHT22;1232;48.008;7.864;2022-07-23T09:01:40;30.30;80.30
1940;DHT22;1232;48.008;7.864;2022-07-23T09:04:05;30.60;78.30
1940;DHT22;1232;48.008;7.864;2022-07-23T09:06:31;30.60;77.50
1940;DHT22;1232;48.008;7.864;2022-07-23T09:08:57;30.90;77.70
1940;DHT22;1232;48.008;7.864;2022-07-23T09:11:22;31.70;77.50
1940;DHT22;1232;48.008;7.864;2022-07-23T09:13:52;33.10;74.20
1940;DHT22;1232;48.008;7.864;2022-07-23T09:16:23;33.70;71.10
1940;DHT22;1232;48.008;7.864;2022-07-23T09:18:53;33.30;72.60
1940;DHT22;1232;48.008;7.864;2022-07-23T09:21:27;32.60;72.00
1940;DHT22;1232;48.008;7.864;2022-07-23T09:26:45;32.00;73.80
1940;DHT22;1232;48.008;7.864;2022-07-23T09:29:13;31.50;74.50
1940;DHT22;1232;48.008;7.864;2022-07-23T09:31:51;31.20;76.20
1940;DHT22;1232;48.008;7.864;2022-07-23T09:34:25;31.30;76.70
1940;DHT22;1232;48.008;7.864;2022-07-23T09:36:56;31.60;76.00
1940;DHT22;1232;48.008;7.864;2022-07-23T09:39:32;31.70;74.40
1940;DHT22;1232;48.008;7.864;2022-07-23T09:42:16;32.30;73.30
1940;DHT22;1232;48.008;7.864;2022-07-23T09:44:47;32.80;72.10
1940;DHT22;1232;48.008;7.864;2022-07-23T09:47:14;33.10;70.00
1940;DHT22;1232;48.008;7.864;2022-07-23T09:49:39;32.70;70.30
1940;DHT22;1232;48.008;7.864;2022-07-23T09:52:06;32.40;71.10
1940;DHT22;1232;48.008;7.864;2022-07-23T09:54:34;32.30;70.50
1940;DHT22;1232;48.008;7.864;2022-07-23T09:57:04;32.40;72.40
1940;DHT22;1232;48.008;7.864;2022-07-23T09:59:32;32.60;69.60
1940;DHT22;1232;48.008;7.864;2022-07-23T10:01:59;33.40;68.70
1940;DHT22;1232;48.008;7.864;2022-07-23T10:04:27;33.60;67.00
1940;DHT22;1232;48.008;7.864;2022-07-23T10:06:55;33.00;66.10
1940;DHT22;1232;48.008;7.864;2022-07-23T10:09:31;33.80;65.40
1940;DHT22;1232;48.008;7.864;2022-07-23T10:12:03;34.70;61.90
1940;DHT22;1232;48.008;7.864;2022-07-23T10:14:51;34.80;60.50
1940;DHT22;1232;48.008;7.864;2022-07-23T10:17:17;35.50;61.10
1940;DHT22;1232;48.008;7.864;2022-07-23T10:19:43;35.30;58.00
1940;DHT22;1232;48.008;7.864;2022-07-23T10:22:21;34.30;58.80
1940;DHT22;1232;48.008;7.864;2022-07-23T10:35:46;33.50;62.40
1940;DHT22;1232;48.008;7.864;2022-07-23T10:38:37;32.80;64.10
1940;DHT22;1232;48.008;7.864;2022-07-23T10:41:05;33.40;63.30
1940;DHT22;1232;48.008;7.864;2022-07-23T10:43:31;33.40;63.00
1940;DHT22;1232;48.008;7.864;2022-07-23T10:46:22;33.10;62.90
1940;DHT22;1232;48.008;7.864;2022-07-23T10:49:20;32.80;63.90
1940;DHT22;1232;48.008;7.864;2022-07-23T10:54:46;33.70;63.00
1940;DHT22;1232;48.008;7.864;2022-07-23T10:57:13;35.00;60.20
1940;DHT22;1232;48.008;7.864;2022-07-23T11:02:31;35.60;58.70
1940;DHT22;1232;48.008;7.864;2022-07-23T11:05:21;34.40;58.90
1940;DHT22;1232;48.008;7.864;2022-07-23T11:37:05;32.70;64.30
1940;DHT22;1232;48.008;7.864;2022-07-23T11:39:32;32.70;62.90
1940;DHT22;1232;48.008;7.864;2022-07-23T11:41:59;32.70;62.40
1940;DHT22;1232;48.008;7.864;2022-07-23T11:44:29;32.90;62.20
1940;DHT22;1232;48.008;7.864;2022-07-23T11:46:59;32.50;64.10
1940;DHT22;1232;48.008;7.864;2022-07-23T11:49:26;32.00;67.40
1940;DHT22;1232;48.008;7.864;2022-07-23T11:54:35;32.00;67.50
1940;DHT22;1232;48.008;7.864;2022-07-23T11:57:01;32.40;66.70
1940;DHT22;1232;48.008;7.864;2022-07-23T11:59:30;32.60;65.60
1940;DHT22;1232;48.008;7.864;2022-07-23T12:01:58;33.20;62.60
1940;DHT22;1232;48.008;7.864;2022-07-23T12:07:37;33.00;64.00
1940;DHT22;1232;48.008;7.864;2022-07-23T12:10:18;32.80;64.80
1940;DHT22;1232;48.008;7.864;2022-07-23T12:12:46;32.40;65.30
1940;DHT22;1232;48.008;7.864;2022-07-23T12:15:15;32.40;66.30
1940;DHT22;1232;48.008;7.864;2022-07-23T12:17:43;32.30;66.60
1940;DHT22;1232;48.008;7.864;2022-07-23T12:20:14;32.40;66.30
1940;DHT22;1232;48.008;7.864;2022-07-23T12:22:51;31.90;68.30
1940;DHT22;1232;48.008;7.864;2022-07-23T12:25:19;32.10;70.20
1940;DHT22;1232;48.008;7.864;2022-07-23T12:27:46;32.60;68.00
1940;DHT22;1232;48.008;7.864;2022-07-23T12:30:25;32.80;66.40
1940;DHT22;1232;48.008;7.864;2022-07-23T12:32:54;33.10;64.90
1940;DHT22;1232;48.008;7.864;2022-07-23T12:35:21;32.90;64.80
1940;DHT22;1232;48.008;7.864;2022-07-23T12:37:48;33.00;64.20
1940;DHT22;1232;48.008;7.864;2022-07-23T12:42:49;32.40;67.70
1940;DHT22;1232;48.008;7.864;2022-07-23T12:45:15;32.60;68.30
1940;DHT22;1232;48.008;7.864;2022-07-23T12:47:57;32.70;66.80
1940;DHT22;1232;48.008;7.864;2022-07-23T12:53:14;33.20;64.90
1940;DHT22;1232;48.008;7.864;2022-07-23T12:55:42;32.70;64.50
1940;DHT22;1232;48.008;7.864;2022-07-23T12:58:19;33.00;62.70
1940;DHT22;1232;48.008;7.864;2022-07-23T13:00:52;32.70;63.30
1940;DHT22;1232;48.008;7.864;2022-07-23T13:03:41;33.10;63.50
1940;DHT22;1232;48.008;7.864;2022-07-23T13:06:08;32.70;63.90
1940;DHT22;1232;48.008;7.864;2022-07-23T13:08:36;32.30;65.30
1940;DHT22;1232;48.008;7.864;2022-07-23T13:11:04;32.20;64.40
1940;DHT22;1232;48.008;7.864;2022-07-23T13:13:33;32.30;65.00
1940;DHT22;1232;48.008;7.864;2022-07-23T13:15:59;32.50;64.40
1940;DHT22;1232;48.008;7.864;2022-07-23T13:18:25;32.70;63.10
1940;DHT22;1232;48.008;7.864;2022-07-23T13:20:51;32.60;63.10
1940;DHT22;1232;48.008;7.864;2022-07-23T13:23:17;32.80;62.60
1940;DHT22;1232;48.008;7.864;2022-07-23T13:25:45;32.90;60.00
1940;DHT22;1232;48.008;7.864;2022-07-23T13:28:11;32.70;59.80
1940;DHT22;1232;48.008;7.864;2022-07-23T13:30:38;32.40;61.40
1940;DHT22;1232;48.008;7.864;2022-07-23T13:33:03;31.80;62.30
1940;DHT22;1232;48.008;7.864;2022-07-23T13:35:30;31.40;63.10
1940;DHT22;1232;48.008;7.864;2022-07-23T13:38:00;31.30;63.60
1940;DHT22;1232;48.008;7.864;2022-07-23T13:40:27;31.60;63.90
1940;DHT22;1232;48.008;7.864;2022-07-23T13:42:56;31.60;64.20
1940;DHT22;1232;48.008;7.864;2022-07-23T13:45:23;31.60;63.30
1940;DHT22;1232;48.008;7.864;2022-07-23T13:47:49;31.80;64.80
1940;DHT22;1232;48.008;7.864;2022-07-23T13:50:16;32.50;63.40
1940;DHT22;1232;48.008;7.864;2022-07-23T13:52:43;32.80;62.20
1940;DHT22;1232;48.008;7.864;2022-07-23T13:55:09;33.10;62.60
1940;DHT22;1232;48.008;7.864;2022-07-23T13:57:36;33.40;60.40
1940;DHT22;1232;48.008;7.864;2022-07-23T14:00:20;33.70;59.30
1940;DHT22;1232;48.008;7.864;2022-07-23T14:54:44;33.30;59.70
1940;DHT22;1232;48.008;7.864;2022-07-23T14:57:09;33.00;60.90
1940;DHT22;1232;48.008;7.864;2022-07-23T14:59:35;33.20;60.80
1940;DHT22;1232;48.008;7.864;2022-07-23T15:02:01;33.10;60.20
1940;DHT22;1232;48.008;7.864;2022-07-23T15:04:26;33.00;60.00
1940;DHT22;1232;48.008;7.864;2022-07-23T15:06:52;32.60;61.30
1940;DHT22;1232;48.008;7.864;2022-07-23T15:09:17;32.60;61.70
1940;DHT22;1232;48.008;7.864;2022-07-23T15:11:43;32.30;62.60
1940;DHT22;1232;48.008;7.864;2022-07-23T15:14:10;32.30;62.10
1940;DHT22;1232;48.008;7.864;2022-07-23T15:19:59;32.00;63.00
1940;DHT22;1232;48.008;7.864;2022-07-23T15:22:25;31.90;64.20
1940;DHT22;1232;48.008;7.864;2022-07-23T15:24:51;31.90;63.60
1940;DHT22;1232;48.008;7.864;2022-07-23T15:27:16;32.20;63.10
1940;DHT22;1232;48.008;7.864;2022-07-23T15:29:43;32.30;62.80
1940;DHT22;1232;48.008;7.864;2022-07-23T15:32:09;32.20;63.40
1940;DHT22;1232;48.008;7.864;2022-07-23T15:34:36;32.50;62.90
1940;DHT22;1232;48.008;7.864;2022-07-23T15:37:02;32.60;63.00
1940;DHT22;1232;48.008;7.864;2022-07-23T15:39:27;32.90;62.00
1940;DHT22;1232;48.008;7.864;2022-07-23T15:41:53;33.10;61.60
1940;DHT22;1232;48.008;7.864;2022-07-23T15:44:19;32.80;61.90
1940;DHT22;1232;48.008;7.864;2022-07-23T15:46:44;32.20;62.30
1940;DHT22;1232;48.008;7.864;2022-07-23T15:49:10;32.00;64.00
1940;DHT22;1232;48.008;7.864;2022-07-23T15:51:35;32.20;63.10
1940;DHT22;1232;48.008;7.864;2022-07-23T15:54:01;31.80;63.20
1940;DHT22;1232;48.008;7.864;2022-07-23T15:56:27;31.70;62.90
1940;DHT22;1232;48.008;7.864;2022-07-23T15:58:54;31.70;62.70
1940;DHT22;1232;48.008;7.864;2022-07-23T16:01:20;31.80;62.60
1940;DHT22;1232;48.008;7.864;2022-07-23T16:03:45;31.50;62.80
1940;DHT22;1232;48.008;7.864;2022-07-23T16:06:12;31.80;62.50
1940;DHT22;1232;48.008;7.864;2022-07-23T16:08:37;32.10;62.30
1940;DHT22;1232;48.008;7.864;2022-07-23T16:11:03;32.00;61.70
1940;DHT22;1232;48.008;7.864;2022-07-23T16:13:29;31.60;62.10
1940;DHT22;1232;48.008;7.864;2022-07-23T16:15:54;31.70;61.70
1940;DHT22;1232;48.008;7.864;2022-07-23T16:18:21;31.60;59.80
1940;DHT22;1232;48.008;7.864;2022-07-23T16:20:51;31.70;59.60
1940;DHT22;1232;48.008;7.864;2022-07-23T16:23:17;31.80;60.10
1940;DHT22;1232;48.008;7.864;2022-07-23T16:25:43;31.90;59.90
1940;DHT22;1232;48.008;7.864;2022-07-23T16:28:09;31.70;59.60
1940;DHT22;1232;48.008;7.864;2022-07-23T16:30:35;31.50;60.50
1940;DHT22;1232;48.008;7.864;2022-07-23T16:33:01;31.80;59.40
1940;DHT22;1232;48.008;7.864;2022-07-23T16:35:27;31.80;60.30
1940;DHT22;1232;48.008;7.864;2022-07-23T16:37:52;31.80;60.20
1940;DHT22;1232;48.008;7.864;2022-07-23T16:40:19;31.50;60.50
1940;DHT22;1232;48.008;7.864;2022-07-23T16:42:44;31.50;60.20
1940;DHT22;1232;48.008;7.864;2022-07-23T16:45:10;31.50;60.40
1940;DHT22;1232;48.008;7.864;2022-07-23T16:47:37;31.30;61.20
1940;DHT22;1232;48.008;7.864;2022-07-23T16:50:04;31.40;61.40
1940;DHT22;1232;48.008;7.864;2022-07-23T16:52:30;31.50;61.10
1940;DHT22;1232;48.008;7.864;2022-07-23T16:54:56;31.30;61.20
1940;DHT22;1232;48.008;7.864;2022-07-23T16:57:22;31.20;61.90
1940;DHT22;1232;48.008;7.864;2022-07-23T16:59:48;31.30;61.30
1940;DHT22;1232;48.008;7.864;2022-07-23T17:02:13;31.30;62.10
1940;DHT22;1232;48.008;7.864;2022-07-23T17:04:39;31.10;61.60
1940;DHT22;1232;48.008;7.864;2022-07-23T17:07:04;30.90;61.70
1940;DHT22;1232;48.008;7.864;2022-07-23T17:09:32;30.70;62.20
1940;DHT22;1232;48.008;7.864;2022-07-23T17:11:58;30.70;62.50
1940;DHT22;1232;48.008;7.864;2022-07-23T17:14:23;30.60;62.70
1940;DHT22;1232;48.008;7.864;2022-07-23T17:16:49;30.40;64.00
1940;DHT22;1232;48.008;7.864;2022-07-23T17:19:14;30.20;63.80
1940;DHT22;1232;48.008;7.864;2022-07-23T17:21:40;30.20;63.20
1940;DHT22;1232;48.008;7.864;2022-07-23T17:24:06;30.00;63.80
1940;DHT22;1232;48.008;7.864;2022-07-23T17:26:33;30.00;64.80
1940;DHT22;1232;48.008;7.864;2022-07-23T17:29:00;29.90;65.60
1940;DHT22;1232;48.008;7.864;2022-07-23T17:31:26;29.90;66.20
1940;DHT22;1232;48.008;7.864;2022-07-23T17:33:51;29.70;66.30
1940;DHT22;1232;48.008;7.864;2022-07-23T17:36:17;29.80;66.20
1940;DHT22;1232;48.008;7.864;2022-07-23T17:38:43;29.70;66.50
1940;DHT22;1232;48.008;7.864;2022-07-23T17:41:09;29.60;66.60
1940;DHT22;1232;48.008;7.864;2022-07-23T17:43:35;29.50;67.10
1940;DHT22;1232;48.008;7.864;2022-07-23T17:46:00;29.30;67.60
1940;DHT22;1232;48.008;7.864;2022-07-23T17:48:26;29.20;68.20
1940;DHT22;1232;48.008;7.864;2022-07-23T17:50:52;29.30;68.50
1940;DHT22;1232;48.008;7.864;2022-07-23T17:53:18;29.30;68.80
1940;DHT22;1232;48.008;7.864;2022-07-23T17:55:44;29.30;68.90
1940;DHT22;1232;48.008;7.864;2022-07-23T17:58:09;29.30;68.80
1940;DHT22;1232;48.008;7.864;2022-07-23T18:00:36;29.30;69.10
1940;DHT22;1232;48.008;7.864;2022-07-23T18:03:03;29.30;68.80
1940;DHT22;1232;48.008;7.864;2022-07-23T18:05:30;29.20;68.50